Time;durP1;ratioP1;P1;durP2;ratioP2;P2;SDS_P1;SDS_P2;PMS_P1;PMS_P2;Temp;Humidity;BMP_temperature;BMP_pressure;BME280_temperature;BME280_humidity;BME280_pressure;Samples;Min_cycle;Max_cycle;Signal;HPM_P1;HPM_P2
2023/05/06 04:50:48;;;;;;;14.07;6.18;;;;;;;9.79;100.00;96650.91;2094171;27;20592;-59
2023/05/06 04:51:49;;;;;;;9.95;6.80;;;;;;;9.89;100.00;96659.22;2094210;28;20203;-59
2023/05/06 07:01:48;;;;;;;4.45;2.33;;;;;;;15.16;78.41;96715.19;2083416;28;20561;-60
2023/05/06 07:04:01;;;;;;;6.03;2.17;;;;;;;15.48;78.11;96719.38;2089023;28;20574;-60
2023/05/06 07:06:13;;;;;;;5.35;2.35;;;;;;;15.11;77.24;96717.25;2075905;27;20582;-60
2023/05/06 07:07:15;;;;;;;4.47;2.15;;;;;;;15.13;77.77;96728.50;2076993;28;20197;-61
2023/05/06 07:08:17;;;;;;;10.57;2.30;;;;;;;15.24;78.45;96729.66;2079422;28;20193;-60
2023/05/06 07:09:18;;;;;;;5.28;2.20;;;;;;;15.11;78.62;96725.16;2071301;28;20251;-61
2023/05/06 07:10:20;;;;;;;10.68;2.80;;;;;;;15.39;78.76;96733.09;2070955;28;20198;-61
2023/05/06 07:11:22;;;;;;;4.20;2.30;;;;;;;15.35;77.64;96722.78;2062582;28;20333;-61
2023/05/06 07:12:25;;;;;;;6.10;2.00;;;;;;;15.31;76.66;96731.81;2062856;28;20693;-61
2023/05/06 07:13:27;;;;;;;3.58;1.85;;;;;;;15.49;76.67;96736.84;2078866;28;20251;-63
2023/05/06 07:14:28;;;;;;;3.47;1.70;;;;;;;15.74;76.73;96735.28;2076446;28;20201;-63
2023/05/06 07:15:30;;;;;;;5.78;2.00;;;;;;;15.89;75.86;96728.22;2061324;28;20665;-63
2023/05/06 07:16:31;;;;;;;4.28;1.80;;;;;;;16.02;75.35;96737.00;2061081;28;20209;-63
2023/05/06 07:17:33;;;;;;;16.58;2.00;;;;;;;16.09;73.94;96734.84;2064587;28;20323;-63
2023/05/06 07:18:34;;;;;;;5.95;1.85;;;;;;;16.13;74.07;96737.16;2060297;28;20241;-64
2023/05/06 07:19:36;;;;;;;3.30;1.70;;;;;;;15.79;74.09;96728.78;2063258;28;20205;-64
2023/05/06 07:20:37;;;;;;;2.30;1.27;;;;;;;15.95;73.91;96725.22;2062072;28;20218;-64
2023/05/06 07:21:38;;;;;;;5.28;1.38;;;;;;;16.46;73.26;96725.31;2060947;28;20598;-64
2023/05/06 07:22:40;;;;;;;7.18;1.25;;;;;;;16.45;72.73;96723.63;2061932;28;20199;-64
2023/05/06 07:23:41;;;;;;;10.27;1.50;;;;;;;16.85;73.24;96733.28;2061748;28;20286;-62
2023/05/06 07:24:43;;;;;;;5.32;1.80;;;;;;;16.54;71.77;96735.34;2061912;28;20305;-62
2023/05/06 07:25:44;;;;;;;4.15;1.42;;;;;;;16.43;72.33;96730.81;2062314;28;20269;-62
2023/05/06 07:26:46;;;;;;;5.65;1.20;;;;;;;16.78;72.38;96735.47;2060784;28;20199;-62
2023/05/06 07:27:48;;;;;;;3.88;1.35;;;;;;;16.65;71.12;96735.47;2061712;28;20657;-62
2023/05/06 07:28:49;;;;;;;9.32;1.50;;;;;;;16.65;71.14;96729.34;2061175;28;20557;-62
2023/05/06 07:29:51;;;;;;;3.35;1.55;;;;;;;17.09;72.20;96733.41;2063790;28;20678;-62
2023/05/06 07:30:52;;;;;;;2.70;1.33;;;;;;;17.54;70.29;96732.06;2064633;28;20214;-62
2023/05/06 07:31:54;;;;;;;4.00;1.60;;;;;;;17.69;68.93;96732.75;2062052;28;20202;-63
2023/05/06 07:32:55;;;;;;;3.92;1.45;;;;;;;17.34;68.44;96722.91;2062530;28;20646;-63
2023/05/06 07:33:57;;;;;;;6.38;1.40;;;;;;;17.39;67.63;96728.72;2065453;28;20284;-63
2023/05/06 07:34:58;;;;;;;2.90;1.20;;;;;;;17.17;68.87;96726.75;2064099;28;20195;-63
2023/05/06 07:36:00;;;;;;;4.97;1.35;;;;;;;17.03;67.65;96730.34;2061949;28;20728;-62
2023/05/06 07:37:02;;;;;;;3.63;1.20;;;;;;;17.11;67.28;96730.66;2060519;28;20425;-64
2023/05/06 07:38:04;;;;;;;2.70;1.20;;;;;;;17.07;67.30;96713.34;2055461;28;20210;-64
2023/05/06 07:39:07;;;;;;;6.55;1.70;;;;;;;16.87;67.79;96726.09;2064289;28;20772;-64
2023/05/06 07:40:08;;;;;;;3.85;1.40;;;;;;;16.48;67.53;96735.75;2070683;28;20776;-64
2023/05/06 07:41:10;;;;;;;3.20;1.05;;;;;;;16.71;67.90;96728.09;2068522;28;20221;-64
2023/05/06 07:42:12;;;;;;;2.28;1.23;;;;;;;16.58;67.41;96733.34;2060005;28;20210;-64
2023/05/06 07:43:13;;;;;;;2.20;1.08;;;;;;;16.83;67.84;96732.53;2062146;28;20295;-64
2023/05/06 07:44:15;;;;;;;2.70;1.20;;;;;;;16.68;65.20;96715.13;2062305;28;20205;-64
2023/05/06 07:45:18;;;;;;;5.20;1.60;;;;;;;16.76;66.58;96729.47;2059593;28;20262;-64
2023/05/06 07:46:19;;;;;;;5.65;1.52;;;;;;;16.75;65.26;96729.59;2062469;28;20265;-64
2023/05/06 07:47:26;;;;;;;3.60;1.48;;;;;;;17.25;64.80;96721.78;2061406;28;20296;-64
2023/05/06 07:48:29;;;;;;;2.63;1.20;;;;;;;17.70;63.87;96732.66;2061079;28;20263;-64
2023/05/06 07:49:32;;;;;;;6.35;1.70;;;;;;;17.66;61.74;96735.59;2062880;28;20601;-64
2023/05/06 07:50:33;;;;;;;6.70;1.83;;;;;;;17.39;62.47;96731.34;2060449;28;20893;-63
2023/05/06 07:51:35;;;;;;;4.03;1.90;;;;;;;17.14;63.28;96733.06;2063190;28;20261;-64
2023/05/06 07:52:36;;;;;;;2.50;1.60;;;;;;;17.28;62.30;96732.97;2062156;28;20593;-64
2023/05/06 07:53:39;;;;;;;2.88;1.50;;;;;;;17.23;63.71;96734.22;2062742;28;20198;-64
2023/05/06 07:54:40;;;;;;;4.45;1.38;;;;;;;17.34;62.97;96734.31;2059962;28;20304;-64
2023/05/06 07:55:41;;;;;;;8.20;1.58;;;;;;;17.65;63.19;96740.06;2061382;28;20241;-64
2023/05/06 07:56:43;;;;;;;3.55;1.42;;;;;;;18.48;61.92;96740.25;2062200;28;20241;-64
2023/05/06 07:57:44;;;;;;;4.25;1.58;;;;;;;18.65;62.67;96742.47;2062356;28;20567;-63
2023/05/06 07:58:48;;;;;;;8.70;1.83;;;;;;;18.86;64.14;96736.47;2078453;28;20202;-64
2023/05/06 07:59:50;;;;;;;2.95;1.40;;;;;;;18.75;64.89;96730.22;2077357;28;20192;-64
2023/05/06 08:00:52;;;;;;;3.13;1.20;;;;;;;18.82;66.03;96746.44;2061347;28;20229;-64
2023/05/06 08:01:53;;;;;;;4.47;1.10;;;;;;;18.75;65.75;96740.78;2061938;28;20385;-64
2023/05/06 08:02:55;;;;;;;5.30;1.20;;;;;;;19.21;65.13;96744.38;2061375;28;20206;-64
2023/05/06 08:03:56;;;;;;;3.78;1.60;;;;;;;19.39;66.09;96743.88;2076954;28;20201;-64
2023/05/06 08:04:59;;;;;;;6.47;1.20;;;;;;;18.89;65.25;96750.31;2077247;28;20201;-62
2023/05/06 08:06:00;;;;;;;3.08;1.70;;;;;;;18.84;65.89;96751.63;2059745;28;20221;-62
2023/05/06 08:07:02;;;;;;;2.75;1.02;;;;;;;19.51;64.09;96750.00;2062714;28;20234;-62
2023/05/06 08:08:04;;;;;;;7.75;1.50;;;;;;;19.23;63.52;96755.66;2062183;28;20290;-62
2023/05/06 08:09:05;;;;;;;4.90;0.90;;;;;;;19.47;63.23;96753.88;2062993;28;20206;-62
2023/05/06 08:10:08;;;;;;;2.63;0.90;;;;;;;19.50;63.58;96762.41;2060903;28;20204;-64
2023/05/06 08:11:09;;;;;;;2.70;1.08;;;;;;;19.42;62.37;96736.50;2061042;28;20222;-62
2023/05/06 08:12:10;;;;;;;2.20;0.85;;;;;;;19.14;62.81;96751.09;2063321;28;20197;-62
2023/05/06 08:13:12;;;;;;;2.17;1.13;;;;;;;19.30;62.76;96749.88;2061586;28;20214;-61
2023/05/06 08:14:14;;;;;;;3.10;0.88;;;;;;;19.45;62.40;96742.53;2061044;28;20203;-62
2023/05/06 08:15:15;;;;;;;2.33;1.02;;;;;;;19.24;61.54;96754.69;2060177;28;20512;-62
2023/05/06 08:16:17;;;;;;;2.30;1.00;;;;;;;19.13;62.23;96753.84;2063943;28;20344;-64
2023/05/06 08:17:18;;;;;;;2.25;0.90;;;;;;;19.53;62.49;96751.56;2059769;28;20390;-64
2023/05/06 08:18:20;;;;;;;7.13;1.52;;;;;;;19.26;60.90;96759.88;2055071;28;20702;-63
2023/05/06 08:19:23;;;;;;;2.40;1.00;;;;;;;19.26;61.97;96746.63;2059701;28;20768;-64
2023/05/06 08:20:25;;;;;;;2.75;0.90;;;;;;;19.17;61.48;96760.59;2057168;28;20225;-64
2023/05/06 08:21:26;;;;;;;4.72;1.52;;;;;;;19.45;61.34;96756.63;2072470;28;20205;-64
2023/05/06 08:22:28;;;;;;;3.72;1.10;;;;;;;19.12;60.03;96755.66;2072173;28;20245;-64
2023/05/06 08:23:30;;;;;;;3.08;1.13;;;;;;;18.50;60.92;96741.81;2057223;28;20238;-63
2023/05/06 08:24:32;;;;;;;5.75;1.00;;;;;;;19.06;61.62;96754.34;2058222;28;20242;-63
2023/05/06 08:25:33;;;;;;;2.67;1.20;;;;;;;19.30;61.02;96755.19;2057131;28;20411;-63
2023/05/06 08:26:35;;;;;;;11.32;1.50;;;;;;;19.40;60.98;96749.06;2055019;28;20219;-64
2023/05/06 08:27:36;;;;;;;2.45;1.10;;;;;;;19.79;60.53;96738.03;2056413;28;20558;-63
2023/05/06 08:28:38;;;;;;;3.50;0.90;;;;;;;19.41;59.42;96726.91;2055704;28;20677;-63
2023/05/06 08:29:39;;;;;;;4.18;1.15;;;;;;;18.76;59.96;96746.91;2055418;28;20549;-63
2023/05/06 08:30:40;;;;;;;4.93;1.00;;;;;;;18.77;61.03;96754.72;2056171;28;20752;-63
2023/05/06 08:31:42;;;;;;;3.05;1.20;;;;;;;18.80;62.07;96755.47;2057996;28;20249;-63
2023/05/06 08:32:44;;;;;;;2.25;1.05;;;;;;;19.24;61.70;96756.50;2058642;28;20196;-64
2023/05/06 08:33:45;;;;;;;2.08;0.98;;;;;;;19.55;61.71;96749.66;2060367;28;20205;-63
2023/05/06 08:34:47;;;;;;;3.97;1.00;;;;;;;20.00;60.93;96750.56;2058882;28;20202;-64
2023/05/06 08:35:49;;;;;;;1.95;1.10;;;;;;;20.15;59.35;96745.78;2056870;28;20319;-64
2023/05/06 08:36:51;;;;;;;3.00;0.88;;;;;;;19.41;60.64;96757.81;2057322;28;20187;-63
2023/05/06 08:37:52;;;;;;;2.85;1.38;;;;;;;19.78;60.86;96759.34;2055882;28;20210;-63
2023/05/06 08:38:53;;;;;;;3.10;0.95;;;;;;;19.94;59.89;96757.19;2055716;28;20282;-63
2023/05/06 08:39:55;;;;;;;3.88;1.00;;;;;;;20.16;60.69;96758.94;2055248;28;20573;-62
2023/05/06 08:41:06;;;;;;;3.45;1.05;;;;;;;20.61;59.86;96757.91;2055278;28;20238;-63
2023/05/06 08:42:10;;;;;;;4.03;0.98;;;;;;;20.35;58.68;96754.75;2056867;28;20241;-62
2023/05/06 08:43:13;;;;;;;2.10;1.10;;;;;;;19.92;58.51;96753.81;2057518;28;20202;-63
2023/05/06 08:44:17;;;;;;;1.88;0.82;;;;;;;20.05;59.38;96753.69;2054922;28;20227;-63
2023/05/06 08:45:19;;;;;;;4.85;1.40;;;;;;;20.01;58.96;96746.94;2055535;28;20597;-63
2023/05/06 08:46:21;;;;;;;3.97;1.30;;;;;;;19.78;59.61;96762.00;2055841;28;20660;-62
2023/05/06 08:47:23;;;;;;;1.83;0.95;;;;;;;20.03;60.42;96758.25;2061324;28;20195;-62
2023/05/06 08:48:24;;;;;;;3.90;0.90;;;;;;;20.32;59.26;96755.03;2061578;28;20202;-63
2023/05/06 08:49:27;;;;;;;2.00;0.95;;;;;;;20.12;57.62;96757.50;2055972;28;20196;-63
2023/05/06 08:50:28;;;;;;;4.22;1.00;;;;;;;20.28;58.63;96753.56;2055420;28;20253;-63
2023/05/06 08:51:31;;;;;;;4.25;1.30;;;;;;;20.28;59.01;96750.94;2058552;28;20203;-63
2023/05/06 08:52:34;;;;;;;5.35;1.00;;;;;;;20.41;58.17;96751.59;2056252;28;20700;-63
2023/05/06 08:53:38;;;;;;;2.88;1.00;;;;;;;19.79;57.34;96753.09;2056018;28;20374;-63
2023/05/06 08:54:41;;;;;;;5.20;1.17;;;;;;;20.00;58.25;96756.69;2056470;28;20225;-63
2023/05/06 08:55:44;;;;;;;3.50;1.10;;;;;;;20.15;56.79;96753.75;2055189;28;20592;-63
2023/05/06 08:56:50;;;;;;;3.78;1.20;;;;;;;19.84;56.73;96748.31;2056041;28;20273;-63
2023/05/06 08:57:52;;;;;;;1.60;0.80;;;;;;;19.85;56.97;96750.00;2054753;28;20203;-63
2023/05/06 08:58:55;;;;;;;1.95;1.00;;;;;;;20.19;57.17;96758.69;2058661;28;20247;-63
2023/05/06 08:59:57;;;;;;;4.22;1.30;;;;;;;19.99;55.81;96752.34;2055064;28;20195;-63
2023/05/06 09:00:59;;;;;;;5.78;1.08;;;;;;;19.95;56.46;96758.88;2052159;28;20215;-63
2023/05/06 09:02:02;;;;;;;3.42;1.08;;;;;;;19.71;57.84;96754.56;2055797;28;20602;-63
2023/05/06 09:03:04;;;;;;;2.20;1.00;;;;;;;19.31;56.39;96756.88;2057458;28;20314;-63
2023/05/06 09:04:06;;;;;;;3.30;1.00;;;;;;;19.46;56.74;96760.13;2056776;28;20597;-63
2023/05/06 09:05:08;;;;;;;2.53;0.80;;;;;;;19.24;55.73;96754.69;2056111;28;20210;-63
2023/05/06 09:06:10;;;;;;;5.13;1.10;;;;;;;18.88;56.26;96745.13;2056482;28;20747;-63
2023/05/06 09:07:12;;;;;;;2.20;1.17;;;;;;;18.99;57.30;96752.28;2055521;28;20622;-63
2023/05/06 09:08:14;;;;;;;2.25;1.05;;;;;;;19.21;57.88;96752.31;2054198;28;20361;-63
2023/05/06 09:09:16;;;;;;;1.65;0.85;;;;;;;19.34;56.82;96748.69;2054232;28;20210;-63
2023/05/06 09:10:17;;;;;;;1.77;0.90;;;;;;;19.16;57.04;96750.97;2053708;28;20203;-62
2023/05/06 09:11:20;;;;;;;3.58;1.30;;;;;;;19.19;58.06;96750.75;2054691;28;20203;-62
2023/05/06 09:12:23;;;;;;;2.45;1.10;;;;;;;19.49;56.53;96751.91;2055991;28;20249;-61
2023/05/06 09:13:25;;;;;;;1.70;1.00;;;;;;;19.24;56.28;96746.75;2056260;28;20673;-62
2023/05/06 09:14:26;;;;;;;2.03;0.85;;;;;;;19.49;56.64;96749.28;2055886;28;20253;-62
2023/05/06 09:15:46;;;;;;;5.70;0.90;;;;;;;20.42;56.88;96750.66;2054505;28;20199;-61
2023/05/06 09:16:49;;;;;;;3.85;1.00;;;;;;;20.33;55.42;96746.94;2055921;28;20198;-61
2023/05/06 09:17:53;;;;;;;4.80;1.10;;;;;;;20.60;55.70;96755.38;2055414;28;20199;-61
2023/05/06 09:18:55;;;;;;;9.13;1.00;;;;;;;20.93;55.72;96753.56;2055796;28;20222;-62
2023/05/06 09:19:57;;;;;;;3.92;0.95;;;;;;;21.19;55.68;96751.28;2054301;28;20226;-62
2023/05/06 09:20:58;;;;;;;5.18;0.85;;;;;;;21.36;53.82;96750.69;2055363;28;20284;-61
2023/05/06 09:22:02;;;;;;;1.80;0.80;;;;;;;21.48;53.75;96746.13;2054583;28;20217;-61
2023/05/06 09:23:04;;;;;;;2.75;1.20;;;;;;;21.61;53.71;96743.25;2056349;28;20199;-62
2023/05/06 09:24:07;;;;;;;2.15;0.80;;;;;;;21.67;53.54;96745.38;2057530;28;20195;-61
2023/05/06 09:25:10;;;;;;;2.15;0.80;;;;;;;21.42;54.03;96738.69;2058574;28;20199;-61
2023/05/06 09:26:12;;;;;;;3.33;0.95;;;;;;;21.16;53.96;96756.88;2056840;28;20250;-62
2023/05/06 09:27:14;;;;;;;5.70;0.95;;;;;;;21.36;54.58;96745.38;2055767;28;20222;-61
2023/05/06 09:28:15;;;;;;;2.83;0.88;;;;;;;21.29;53.92;96743.38;2055312;28;20290;-61
2023/05/06 09:29:17;;;;;;;3.25;1.13;;;;;;;20.67;53.02;96744.13;2055639;28;20203;-61
2023/05/06 09:30:19;;;;;;;4.38;0.93;;;;;;;20.18;54.24;96746.41;2055121;28;20206;-61
2023/05/06 09:31:21;;;;;;;5.60;1.38;;;;;;;20.01;55.67;96750.44;2055532;28;20199;-61
2023/05/06 09:32:22;;;;;;;2.47;0.90;;;;;;;20.17;54.29;96730.63;2055723;28;20207;-61
2023/05/06 09:33:26;;;;;;;1.40;0.80;;;;;;;20.43;53.87;96746.16;2056345;28;20202;-61
2023/05/06 09:34:27;;;;;;;4.00;1.23;;;;;;;20.30;51.90;96733.97;2056000;28;20202;-62
2023/05/06 09:35:38;;;;;;;1.73;0.80;;;;;;;19.88;53.30;96742.66;2056101;28;20203;-62
2023/05/06 09:36:40;;;;;;;3.15;0.90;;;;;;;19.59;53.64;96739.63;2056951;28;20265;-61
2023/05/06 09:37:41;;;;;;;2.08;1.05;;;;;;;19.59;53.66;96744.94;2055977;28;20241;-61
2023/05/06 09:38:42;;;;;;;2.30;0.80;;;;;;;19.35;53.58;96739.78;2058585;28;20206;-61
2023/05/06 09:39:44;;;;;;;2.45;0.85;;;;;;;19.21;54.81;96746.16;2059313;28;20203;-61
2023/05/06 09:40:46;;;;;;;4.15;0.90;;;;;;;19.12;55.27;96742.41;2056171;28;20222;-61
2023/05/06 09:41:47;;;;;;;3.25;1.20;;;;;;;18.79;54.65;96732.63;2057158;28;20234;-61
2023/05/06 09:42:50;;;;;;;2.63;1.10;;;;;;;18.92;55.69;96736.03;2055872;28;20203;-62
2023/05/06 09:43:53;;;;;;;3.25;0.80;;;;;;;19.37;55.34;96745.81;2056725;28;20714;-62
2023/05/06 09:45:04;;;;;;;2.55;0.90;;;;;;;19.54;54.22;96742.66;2055353;28;20250;-62
2023/05/06 09:46:06;;;;;;;2.05;0.90;;;;;;;19.66;53.29;96737.34;2055221;28;20285;-62
2023/05/06 09:47:08;;;;;;;4.40;0.85;;;;;;;19.86;52.31;96741.09;2055886;28;20738;-62
2023/05/06 09:48:10;;;;;;;1.67;0.73;;;;;;;20.24;52.94;96734.47;2053207;28;20196;-61
2023/05/06 09:49:13;;;;;;;2.50;0.80;;;;;;;20.46;51.27;96722.06;2054934;28;20603;-61
2023/05/06 09:50:15;;;;;;;4.68;1.10;;;;;;;19.57;53.05;96737.13;2056229;28;20472;-61
2023/05/06 09:51:17;;;;;;;2.63;0.90;;;;;;;20.06;50.56;96728.84;2058293;28;20202;-61
2023/05/06 09:52:20;;;;;;;1.52;0.77;;;;;;;20.18;50.45;96716.41;2055844;28;20233;-62
2023/05/06 09:53:26;;;;;;;12.20;0.95;;;;;;;20.61;50.03;96731.38;2054689;28;21063;-61
2023/05/06 09:54:28;;;;;;;3.45;0.90;;;;;;;20.13;52.36;96731.84;2055424;28;20256;-61
2023/05/06 09:55:29;;;;;;;1.20;0.80;;;;;;;20.28;50.93;96725.28;2055321;28;20207;-61
2023/05/06 09:56:32;;;;;;;1.20;0.68;;;;;;;20.48;50.71;96714.81;2055814;28;20199;-61
2023/05/06 09:57:35;;;;;;;1.25;0.70;;;;;;;20.69;49.02;96726.25;2056273;28;20195;-61
2023/05/06 09:58:37;;;;;;;4.85;1.02;;;;;;;20.80;48.76;96719.25;2055339;28;20199;-61
2023/05/06 09:59:40;;;;;;;3.15;0.80;;;;;;;20.82;48.27;96722.59;2056272;28;20550;-62
2023/05/06 10:00:46;;;;;;;2.65;0.80;;;;;;;20.99;48.36;96721.19;2056231;28;20227;-61
2023/05/06 10:01:48;;;;;;;2.00;0.85;;;;;;;20.96;47.95;96719.63;2055371;28;20551;-61
2023/05/06 10:02:50;;;;;;;1.70;0.80;;;;;;;21.25;48.65;96720.72;2055920;28;20274;-62
2023/05/06 10:03:53;;;;;;;1.90;0.80;;;;;;;21.11;49.66;96717.44;2054633;28;20195;-61
2023/05/06 10:04:55;;;;;;;3.00;1.00;;;;;;;19.64;51.48;96715.44;2057364;28;20206;-61
2023/05/06 10:06:00;;;;;;;9.75;1.90;;;;;;;19.68;51.70;96728.31;2055124;28;20234;-62
2023/05/06 10:07:03;;;;;;;8.18;1.50;;;;;;;20.52;52.20;96717.09;2054689;28;20203;-62
2023/05/06 10:08:06;;;;;;;3.22;1.13;;;;;;;20.68;52.18;96719.28;2056691;28;20210;-62
2023/05/06 10:09:09;;;;;;;2.33;1.10;;;;;;;19.58;52.32;96716.78;2056020;28;20586;-61
2023/05/06 10:10:10;;;;;;;1.70;1.00;;;;;;;19.92;52.23;96724.66;2058770;28;20198;-62
2023/05/06 10:11:13;;;;;;;1.88;0.80;;;;;;;19.51;52.73;96721.72;2056559;28;20218;-62
2023/05/06 10:12:15;;;;;;;3.15;1.00;;;;;;;19.37;53.82;96714.88;2058339;28;20195;-62
2023/05/06 10:13:19;;;;;;;1.70;0.80;;;;;;;19.58;52.04;96720.25;2057912;28;20226;-61
2023/05/06 10:14:20;;;;;;;3.83;0.80;;;;;;;19.67;51.32;96718.69;2055843;28;20199;-62
2023/05/06 10:15:24;;;;;;;4.80;0.80;;;;;;;19.06;51.67;96716.44;2054523;28;20195;-61
2023/05/06 10:16:26;;;;;;;3.65;0.80;;;;;;;19.34;52.76;96712.47;2056894;28;20691;-62
2023/05/06 10:17:30;;;;;;;1.90;0.90;;;;;;;19.39;53.63;96722.72;2055202;28;20196;-62
2023/05/06 10:18:35;;;;;;;1.50;0.80;;;;;;;19.35;53.57;96708.88;2056518;28;20203;-61
2023/05/06 10:19:41;;;;;;;1.75;0.70;;;;;;;20.24;52.92;96718.56;2054506;28;20257;-62
2023/05/06 10:20:43;;;;;;;2.28;0.90;;;;;;;20.02;51.48;96717.66;2055300;28;20274;-62
2023/05/06 10:21:52;;;;;;;7.57;0.98;;;;;;;20.22;51.86;96704.56;2055997;28;20195;-62
2023/05/06 10:23:19;;;;;;;3.20;1.00;;;;;;;20.64;51.55;96709.06;2053655;28;20204;-62
2023/05/06 10:24:31;;;;;;;1.67;0.68;;;;;;;21.58;48.59;96716.13;2055970;28;20210;-62
2023/05/06 10:25:41;;;;;;;3.05;0.80;;;;;;;21.89;48.68;96703.59;2054820;28;20210;-62
2023/05/06 10:26:45;;;;;;;1.73;0.73;;;;;;;22.46;49.36;96703.78;2054225;28;20203;-62
2023/05/06 10:27:47;;;;;;;6.40;0.90;;;;;;;23.22;47.16;96710.06;2058219;28;20206;-62
2023/05/06 10:28:51;;;;;;;6.35;1.10;;;;;;;;;;2060448;28;20615;-63
2023/05/06 10:29:58;;;;;;;3.70;0.80;;;;;;;23.56;45.95;96706.81;2055581;28;20200;-62
2023/05/06 10:31:03;;;;;;;1.80;0.80;;;;;;;23.05;45.63;96710.81;2056736;28;20223;-62
2023/05/06 10:32:08;;;;;;;2.38;1.13;;;;;;;22.77;45.78;96700.94;2054867;28;20199;-62
2023/05/06 10:33:11;;;;;;;3.80;0.90;;;;;;;22.72;45.99;96705.00;2056001;28;20285;-61
2023/05/06 10:34:12;;;;;;;2.15;0.80;;;;;;;22.89;45.06;96698.09;2055503;28;20199;-62
2023/05/06 10:35:25;;;;;;;1.92;1.10;;;;;;;20.30;49.26;96699.50;2055373;28;20226;-62
2023/05/06 10:36:30;;;;;;;1.33;0.65;;;;;;;20.85;48.92;96696.66;2055069;28;20254;-62
2023/05/06 10:37:33;;;;;;;1.83;0.88;;;;;;;20.59;48.36;96690.88;2055906;28;20199;-62
2023/05/06 10:38:40;;;;;;;2.55;0.90;;;;;;;20.84;48.62;96691.47;2057311;28;20207;-62
2023/05/06 10:39:42;;;;;;;4.93;1.02;;;;;;;21.17;47.82;96692.19;2054610;28;20199;-62
2023/05/06 10:40:45;;;;;;;2.35;1.13;;;;;;;20.92;48.89;96689.00;2055283;28;20464;-62
2023/05/06 10:41:47;;;;;;;3.50;0.80;;;;;;;21.24;49.35;96689.84;2055304;28;20202;-62
2023/05/06 10:42:50;;;;;;;2.17;0.82;;;;;;;21.27;48.51;96692.22;2056849;28;20203;-62
2023/05/06 10:43:55;;;;;;;3.40;0.90;;;;;;;21.19;48.61;96683.13;2055721;28;20203;-61
2023/05/06 10:45:04;;;;;;;1.92;0.88;;;;;;;21.32;49.48;96685.53;2056407;28;20298;-62
2023/05/06 10:46:12;;;;;;;2.33;0.93;;;;;;;21.84;48.48;96693.38;2054891;28;20214;-62
2023/05/06 10:47:14;;;;;;;3.40;0.90;;;;;;;21.79;49.15;96684.97;2056356;28;20211;-62
2023/05/06 10:48:15;;;;;;;1.67;0.80;;;;;;;21.12;49.66;96683.78;2056335;28;20212;-62
2023/05/06 10:49:19;;;;;;;2.55;0.90;;;;;;;21.02;49.60;96684.56;2054512;28;20211;-62
2023/05/06 10:50:22;;;;;;;4.22;0.82;;;;;;;20.96;48.86;96674.50;2053228;28;20296;-62
2023/05/06 10:51:25;;;;;;;2.30;1.02;;;;;;;21.19;49.02;96677.81;2055820;28;20238;-62
2023/05/06 10:52:43;;;;;;;1.80;0.90;;;;;;;20.90;48.53;96672.38;2054851;28;20310;-62
2023/05/06 10:53:55;;;;;;;2.88;0.85;;;;;;;21.30;48.83;96676.03;2056461;28;20706;-62
2023/05/06 10:54:56;;;;;;;1.60;0.82;;;;;;;20.85;50.29;96680.72;2056306;28;20592;-62
2023/05/06 10:56:10;;;;;;;5.65;0.90;;;;;;;20.96;51.07;96678.97;2054183;28;20223;-63
2023/05/06 10:57:12;;;;;;;3.92;0.90;;;;;;;20.24;52.91;96676.13;2055012;28;20199;-62
2023/05/06 10:58:14;;;;;;;1.58;0.80;;;;;;;20.60;50.90;96667.84;2056446;28;20198;-62
2023/05/06 10:59:30;;;;;;;6.60;1.25;;;;;;;21.55;48.19;96672.06;2055955;28;20195;-62
2023/05/06 11:00:33;;;;;;;9.43;1.08;;;;;;;22.24;49.24;96670.31;2056683;28;20299;-62
2023/05/06 11:01:36;;;;;;;1.48;0.90;;;;;;;22.60;47.85;96667.91;2056767;28;20308;-62
2023/05/06 11:02:39;;;;;;;1.73;0.80;;;;;;;23.63;47.56;96669.78;2057472;28;20204;-61
2023/05/06 11:03:42;;;;;;;1.88;0.85;;;;;;;23.58;47.38;96666.69;2058246;28;20234;-62
2023/05/06 11:04:50;;;;;;;3.80;1.30;;;;;;;24.52;46.79;96665.44;2057035;28;20198;-62
2023/05/06 11:05:52;;;;;;;1.55;0.80;;;;;;;24.52;45.77;96660.09;2055090;28;20223;-62
2023/05/06 11:07:05;;;;;;;3.78;1.00;;;;;;;24.94;46.25;96662.06;2054028;28;20214;-62
2023/05/06 11:08:09;;;;;;;3.58;1.17;;;;;;;24.93;44.89;96649.69;2054377;28;20215;-62
2023/05/06 11:09:25;;;;;;;3.15;0.80;;;;;;;25.26;42.43;96662.41;2055416;28;20290;-62
2023/05/06 11:10:31;;;;;;;3.75;0.95;;;;;;;25.33;44.61;96659.91;2053230;28;20202;-63
2023/05/06 11:12:00;;;;;;;5.70;0.98;;;;;;;24.87;43.87;96662.88;2055262;28;20206;-63
2023/05/06 11:13:20;;;;;;;4.30;0.88;;;;;;;24.68;43.52;96663.91;2058289;28;20199;-62
2023/05/06 11:14:34;;;;;;;3.70;1.63;;;;;;;25.25;43.52;96666.06;2054591;28;20238;-62
2023/05/06 11:15:35;;;;;;;5.13;0.98;;;;;;;22.47;46.29;96665.56;2055774;28;20308;-64
2023/05/06 11:16:50;;;;;;;3.15;0.90;;;;;;;22.64;47.37;96661.31;2055262;28;20191;-64
2023/05/06 11:17:55;;;;;;;3.20;1.00;;;;;;;22.06;47.36;96659.53;2049117;28;20342;-64
2023/05/06 11:18:57;;;;;;;2.97;1.10;;;;;;;22.39;48.61;96665.44;2054441;28;20748;-65
2023/05/06 11:20:25;;;;;;;3.75;0.95;;;;;;;22.30;46.63;96668.91;2056086;28;20227;-62
2023/05/06 11:21:29;;;;;;;4.35;1.05;;;;;;;22.21;49.03;96659.09;2061910;28;20343;-64
2023/05/06 11:22:39;;;;;;;6.28;1.00;;;;;;;22.85;48.40;96662.13;2062466;28;20198;-63
2023/05/06 11:23:40;;;;;;;2.53;1.13;;;;;;;22.90;46.17;96663.34;2065059;28;20238;-63
2023/05/06 11:24:42;;;;;;;8.95;1.42;;;;;;;22.53;47.61;96655.34;2062996;28;20550;-64
2023/05/06 11:25:46;;;;;;;4.60;1.00;;;;;;;22.92;46.14;96657.88;2077221;28;20984;-63
2023/05/06 11:26:48;;;;;;;5.57;1.40;;;;;;;23.09;45.97;96648.28;2077435;28;20201;-63
2023/05/06 11:27:50;;;;;;;1.85;1.20;;;;;;;23.71;44.98;96656.53;2063434;28;20195;-63
2023/05/06 11:28:51;;;;;;;1.63;0.90;;;;;;;24.25;44.75;96653.91;2061108;28;20361;-62
2023/05/06 11:29:52;;;;;;;3.15;1.00;;;;;;;24.66;45.13;96656.06;2064320;28;20197;-63
2023/05/06 11:30:54;;;;;;;3.55;1.25;;;;;;;22.75;47.33;96662.13;2065926;28;20231;-62
2023/05/06 11:31:57;;;;;;;4.28;1.27;;;;;;;23.70;46.56;96660.16;2063655;28;20230;-63
2023/05/06 11:33:03;;;;;;;3.72;1.00;;;;;;;22.75;45.92;96657.63;2061982;28;20201;-62
2023/05/06 11:34:07;;;;;;;2.40;1.00;;;;;;;23.75;45.76;96649.06;2062603;28;20201;-63
2023/05/06 11:35:10;;;;;;;2.50;0.93;;;;;;;24.39;44.68;96649.00;2062915;28;20199;-63
2023/05/06 11:36:17;;;;;;;2.75;1.30;;;;;;;24.62;43.89;96647.50;2053769;28;20702;-63
2023/05/06 11:37:26;;;;;;;4.22;1.02;;;;;;;25.08;43.51;96657.16;2054865;28;20283;-62
2023/05/06 11:38:44;;;;;;;4.53;1.00;;;;;;;25.75;41.67;96643.06;2055783;28;20562;-62
2023/05/06 11:39:47;;;;;;;2.38;1.17;;;;;;;25.81;41.73;96653.06;2056018;28;20714;-62
2023/05/06 11:40:49;;;;;;;3.65;1.50;;;;;;;26.18;42.09;96646.47;2054661;28;20223;-63
2023/05/06 11:41:52;;;;;;;2.00;0.90;;;;;;;26.28;41.92;96650.81;2055853;28;20199;-62
2023/05/06 11:42:53;;;;;;;7.43;1.05;;;;;;;24.73;44.22;96653.59;2056979;28;20210;-62
2023/05/06 11:43:55;;;;;;;2.25;1.27;;;;;;;23.69;46.43;96655.81;2055205;28;20207;-62
2023/05/06 11:45:01;;;;;;;2.00;1.10;;;;;;;22.06;49.67;96658.72;2054490;28;20910;-63
2023/05/06 11:46:04;;;;;;;3.25;1.20;;;;;;;22.59;49.58;96652.06;2048332;28;20887;-63
2023/05/06 11:47:07;;;;;;;2.97;1.13;;;;;;;23.34;47.08;96664.59;2049730;28;20607;-63
2023/05/06 11:48:16;;;;;;;3.50;1.13;;;;;;;23.91;45.58;96654.59;2055521;28;20196;-64
2023/05/06 11:49:18;;;;;;;2.15;1.15;;;;;;;22.20;48.10;96657.44;2055624;28;20213;-63
2023/05/06 11:50:21;;;;;;;2.78;1.10;;;;;;;23.03;47.27;96655.03;2072219;28;20423;-63
2023/05/06 11:51:23;;;;;;;10.02;1.60;;;;;;;23.86;48.53;96648.84;2077360;28;20267;-64
2023/05/06 11:52:24;;;;;;;2.53;0.98;;;;;;;24.55;48.05;96665.13;2066809;28;20221;-64
2023/05/06 11:53:26;;;;;;;2.20;0.90;;;;;;;24.91;45.61;96657.06;2069050;28;20748;-65
2023/05/06 11:54:27;;;;;;;1.77;0.98;;;;;;;24.75;45.25;96654.28;2067937;28;20198;-65
2023/05/06 11:55:29;;;;;;;2.95;0.95;;;;;;;25.64;43.91;96649.53;2061105;28;20198;-64
2023/05/06 11:56:44;;;;;;;3.60;1.10;;;;;;;25.32;44.35;96640.38;2057132;28;20745;-64
2023/05/06 11:57:46;;;;;;;1.73;0.98;;;;;;;26.25;44.02;96657.34;2058708;28;20709;-64
2023/05/06 11:58:47;;;;;;;2.95;1.08;;;;;;;26.36;43.69;96656.16;2056919;28;20195;-64
2023/05/06 11:59:53;;;;;;;3.72;1.10;;;;;;;26.59;42.78;96660.81;2057017;28;20652;-64
2023/05/06 12:00:59;;;;;;;2.88;0.90;;;;;;;26.29;42.64;96658.66;2057408;28;20243;-63